Time;durP1;ratioP1;P1;durP2;ratioP2;P2;SDS_P1;SDS_P2;PMS_P1;PMS_P2;Temp;Humidity;BMP_temperature;BMP_pressure;BME280_temperature;BME280_humidity;BME280_pressure;Samples;Min_cycle;Max_cycle;Signal;HPM_P1;HPM_P2
2022/11/02 00:03:14;;;;;;;33.07;20.20;;;;;;;12.04;100.00;100973.72;4994378;57;1144872;-75
2022/11/02 00:08:20;;;;;;;33.40;20.40;;;;;;;11.94;100.00;100968.73;4994644;57;1144972;-75
2022/11/02 00:13:26;;;;;;;32.13;19.03;;;;;;;11.88;100.00;100966.09;4993992;57;1145082;-75
2022/11/02 00:18:33;;;;;;;32.13;21.77;;;;;;;11.83;100.00;100963.41;4994263;57;1145015;-75
2022/11/02 00:23:41;;;;;;;36.27;21.97;;;;;;;11.71;100.00;100965.16;4994714;57;1144985;-75
2022/11/02 00:28:48;;;;;;;42.13;20.10;;;;;;;11.67;100.00;100966.81;5014527;57;1144864;-75
2022/11/02 00:33:53;;;;;;;39.83;18.15;;;;;;;11.67;100.00;100965.48;4909791;59;1145074;-76
2022/11/02 00:38:59;;;;;;;31.83;19.57;;;;;;;11.66;100.00;100969.94;4912550;59;1145020;-75
2022/11/02 00:44:05;;;;;;;32.33;20.05;;;;;;;11.65;100.00;100973.55;4911803;58;1145034;-75
2022/11/02 00:49:14;;;;;;;49.30;23.53;;;;;;;11.63;100.00;100977.64;4910825;59;1144873;-75
2022/11/02 00:54:20;;;;;;;56.73;26.07;;;;;;;11.53;100.00;100974.47;4879325;59;1144942;-75
2022/11/02 00:59:26;;;;;;;107.83;29.27;;;;;;;11.53;100.00;100984.59;4856726;58;1145128;-75
2022/11/02 01:04:33;;;;;;;97.57;19.30;;;;;;;11.47;100.00;100992.13;4962320;58;1147001;-75
2022/11/02 01:09:39;;;;;;;43.40;23.17;;;;;;;11.39;100.00;100992.70;4961889;58;1145071;-75
2022/11/02 01:14:48;;;;;;;107.03;26.50;;;;;;;11.42;100.00;100984.55;4962722;58;1144922;-75
2022/11/02 01:19:54;;;;;;;126.33;28.73;;;;;;;11.49;100.00;100980.95;4904767;58;1146976;-75
2022/11/02 01:25:01;;;;;;;66.45;27.32;;;;;;;11.54;100.00;100986.28;4994647;58;1147083;-76
2022/11/02 01:30:07;;;;;;;119.13;31.47;;;;;;;11.58;100.00;100985.10;4993281;58;1145026;-75
2022/11/02 01:35:15;;;;;;;287.05;32.15;;;;;;;11.62;100.00;100978.59;4792308;60;1147312;-75
2022/11/02 01:40:21;;;;;;;107.87;29.30;;;;;;;11.66;100.00;100982.34;4794670;59;1147155;-75
2022/11/02 01:45:28;;;;;;;104.57;20.57;;;;;;;11.66;100.00;100986.32;4994638;57;1147147;-75
2022/11/02 01:50:34;;;;;;;43.70;24.53;;;;;;;11.56;100.00;100992.31;4871130;59;1147265;-75
2022/11/02 01:55:42;;;;;;;79.90;21.47;;;;;;;11.54;100.00;100990.73;4953124;58;1145183;-75
2022/11/02 02:00:48;;;;;;;248.00;17.87;;;;;;;11.59;100.00;100984.14;4995363;57;1145133;-75
2022/11/02 02:06:05;;;;;;;183.07;16.47;;;;;;;11.55;100.00;100994.59;5034086;57;1147062;-75
2022/11/02 02:11:32;;;;;;;121.90;13.33;;;;;;;11.45;100.00;100989.63;5034479;57;1147209;-75
2022/11/02 02:16:57;;;;;;;58.47;13.07;;;;;;;11.42;100.00;100985.87;5034355;57;1147074;-75
2022/11/02 02:22:25;;;;;;;49.08;11.35;;;;;;;11.47;100.00;100988.16;4995438;57;1145084;-75
2022/11/02 02:27:52;;;;;;;79.73;12.77;;;;;;;11.56;100.00;100972.92;5026648;57;1145020;-76
2022/11/02 02:33:12;;;;;;;95.20;15.72;;;;;;;11.70;100.00;100974.54;5029657;57;1145011;-75
2022/11/02 02:38:37;;;;;;;83.20;13.50;;;;;;;11.80;100.00;100977.73;5026413;57;1144988;-76
2022/11/02 02:43:48;;;;;;;72.03;10.90;;;;;;;11.84;100.00;100988.95;4907854;58;1144980;-75
2022/11/02 02:48:57;;;;;;;66.27;9.50;;;;;;;11.71;100.00;100992.13;4914405;58;1145167;-75
2022/11/02 02:54:08;;;;;;;56.63;8.90;;;;;;;11.58;100.00;100996.17;4890692;59;1142929;-75
2022/11/02 02:59:22;;;;;;;45.23;9.83;;;;;;;11.53;100.00;101000.95;4963430;57;1142890;-75
2022/11/02 03:04:29;;;;;;;23.47;9.47;;;;;;;11.50;100.00;100995.88;4830682;58;1142781;-75
2022/11/02 03:10:15;;;;;;;43.63;10.27;;;;;;;11.52;100.00;101001.44;5027663;57;1142937;-76
2022/11/02 03:15:26;;;;;;;47.03;9.97;;;;;;;11.53;100.00;100993.02;4859518;59;1145114;-75
2022/11/02 03:20:46;;;;;;;18.85;9.88;;;;;;;11.53;100.00;101000.95;4863415;59;1143025;-76
2022/11/02 03:26:17;;;;;;;25.33;9.50;;;;;;;11.50;100.00;101003.34;4767923;59;1143067;-76
2022/11/02 03:31:38;;;;;;;32.03;9.60;;;;;;;11.51;100.00;101006.37;4697280;61;1143054;-75
2022/11/02 03:37:09;;;;;;;21.20;10.27;;;;;;;11.54;100.00;100996.03;4684202;60;1143138;-75
2022/11/02 03:42:21;;;;;;;18.60;10.10;;;;;;;11.58;100.00;100998.83;4680217;61;1145177;-75
2022/11/02 03:47:31;;;;;;;31.55;11.03;;;;;;;11.61;100.00;100986.17;4697986;60;1145108;-75
2022/11/02 03:52:42;;;;;;;24.20;11.07;;;;;;;11.61;100.00;100986.65;4947819;57;1144997;-75
2022/11/02 03:57:51;;;;;;;17.33;10.87;;;;;;;11.62;100.00;100993.64;5015855;56;1145035;-76
2022/11/02 04:03:05;;;;;;;18.50;9.98;;;;;;;11.63;100.00;100998.83;4838865;58;1145021;-75
2022/11/02 04:08:21;;;;;;;13.03;9.57;;;;;;;11.63;100.00;101012.08;5027707;57;1143008;-76
2022/11/02 04:29:40;;;;;;;25.40;10.50;;;;;;;11.38;100.00;101031.22;4943440;58;1144927;-75
2022/11/02 04:34:46;;;;;;;19.63;10.53;;;;;;;11.30;100.00;101023.84;4758384;60;1145095;-74
2022/11/02 04:39:53;;;;;;;27.62;11.84;;;;;;;11.29;100.00;101028.77;4960747;58;1145026;-76
2022/11/02 04:44:59;;;;;;;21.35;11.18;;;;;;;11.29;100.00;101024.80;4886843;58;1144858;-75
2022/11/02 04:50:06;;;;;;;28.50;11.12;;;;;;;11.32;100.00;101026.36;4944874;58;1145199;-75
2022/11/02 04:55:12;;;;;;;31.50;12.73;;;;;;;11.29;100.00;101019.51;4753309;60;1145014;-75
2022/11/02 05:00:19;;;;;;;31.43;11.40;;;;;;;11.27;100.00;101011.67;5024118;57;1145029;-74
2022/11/02 05:05:26;;;;;;;29.00;8.03;;;;;;;11.29;100.00;101007.59;5024395;57;1144834;-74
2022/11/02 05:10:33;;;;;;;25.53;9.77;;;;;;;11.23;100.00;101000.08;5024055;57;1142990;-74
2022/11/02 05:15:42;;;;;;;27.50;10.77;;;;;;;11.23;100.00;101015.97;4910971;59;1142731;-75
2022/11/02 05:20:56;;;;;;;11.90;7.83;;;;;;;11.22;100.00;101012.95;4913778;58;1145002;-75
2022/11/02 05:26:08;;;;;;;17.82;9.28;;;;;;;11.14;100.00;101018.81;4808756;58;1142932;-75
2022/11/02 05:31:15;;;;;;;26.77;8.20;;;;;;;11.04;100.00;101024.85;4953636;58;1142899;-74
2022/11/02 05:36:21;;;;;;;35.77;9.37;;;;;;;10.98;100.00;101030.60;4952099;58;1142951;-74
2022/11/02 05:41:29;;;;;;;26.93;10.67;;;;;;;10.96;100.00;101018.80;4953109;58;1143050;-75
2022/11/02 05:46:35;;;;;;;110.57;11.70;;;;;;;10.96;100.00;101024.57;4918508;58;1191369;-75
2022/11/02 05:51:42;;;;;;;8.67;5.97;;;;;;;10.94;100.00;101027.32;4952723;58;1147046;-74
2022/11/02 05:56:48;;;;;;;28.40;7.17;;;;;;;10.78;100.00;101043.44;4952800;58;1140874;-74
2022/11/02 06:01:55;;;;;;;10.93;5.87;;;;;;;10.60;100.00;101039.89;5025726;56;1143064;-76
2022/11/02 06:07:00;;;;;;;5.97;5.27;;;;;;;10.42;100.00;101032.27;5020840;57;1142986;-74
2022/11/02 06:12:06;;;;;;;55.83;8.00;;;;;;;10.34;100.00;101029.80;5035689;57;1140742;-74
2022/11/02 06:17:12;;;;;;;48.48;9.03;;;;;;;10.31;100.00;101042.74;4838722;59;1142962;-74
2022/11/02 06:22:17;;;;;;;26.37;8.43;;;;;;;10.31;100.00;101043.22;5054123;56;1142896;-74
2022/11/02 06:27:23;;;;;;;9.57;6.67;;;;;;;10.32;100.00;101048.41;5046848;56;1143073;-74
2022/11/02 06:32:29;;;;;;;19.63;8.50;;;;;;;10.20;100.00;101047.45;5026731;57;1140695;-74
2022/11/02 06:37:35;;;;;;;10.27;7.97;;;;;;;10.10;100.00;101050.28;5025987;57;1142976;-74
2022/11/02 06:42:41;;;;;;;15.50;7.97;;;;;;;10.04;100.00;101045.43;5026183;57;1142802;-74
2022/11/02 06:47:49;;;;;;;17.07;7.30;;;;;;;10.05;100.00;101050.24;5027837;57;1142775;-74
2022/11/02 06:52:54;;;;;;;23.87;8.30;;;;;;;9.97;100.00;101052.53;5027456;57;1142892;-74
2022/11/02 06:58:01;;;;;;;10.80;6.53;;;;;;;9.91;100.00;101065.70;5027094;57;1140856;-75
2022/11/02 07:03:09;;;;;;;13.83;9.00;;;;;;;9.91;100.00;101076.73;5110162;56;1140990;-74
2022/11/02 07:08:17;;;;;;;9.40;5.87;;;;;;;9.91;100.00;101073.63;5111542;56;1140928;-74
2022/11/02 07:13:22;;;;;;;12.28;8.90;;;;;;;9.97;100.00;101077.63;5111325;56;1138778;-74
2022/11/02 07:18:28;;;;;;;17.93;11.20;;;;;;;10.00;100.00;101086.21;5109558;56;1140759;-74
2022/11/02 07:23:34;;;;;;;15.03;10.57;;;;;;;10.01;100.00;101090.55;5028981;56;1144960;-74
2022/11/02 07:28:39;;;;;;;17.23;12.53;;;;;;;9.99;100.00;101087.63;5010256;57;1145072;-74
2022/11/02 07:33:45;;;;;;;26.03;16.07;;;;;;;10.04;100.00;101089.51;4872161;59;1143141;-74
2022/11/02 07:38:51;;;;;;;21.00;11.87;;;;;;;10.11;100.00;101090.30;4952286;57;1145064;-74
2022/11/02 07:43:57;;;;;;;19.80;13.30;;;;;;;10.18;100.00;101078.86;4955822;58;1144986;-76
2022/11/02 07:49:13;;;;;;;21.95;13.53;;;;;;;10.25;100.00;101080.63;4865420;58;1145116;-74
2022/11/02 07:54:19;;;;;;;20.43;11.43;;;;;;;10.32;100.00;101092.03;4967219;57;1145120;-74
2022/11/02 07:59:25;;;;;;;20.00;12.60;;;;;;;10.41;100.00;101083.94;4975446;57;1145014;-74
2022/11/02 08:04:33;;;;;;;26.57;13.97;;;;;;;10.44;100.00;101082.41;4952209;57;1145056;-74
2022/11/02 08:09:39;;;;;;;22.67;12.20;;;;;;;10.52;100.00;101084.92;4957187;57;1144961;-73
2022/11/02 08:14:46;;;;;;;19.33;11.73;;;;;;;10.70;100.00;101076.65;4951899;58;1145034;-74
2022/11/02 08:19:54;;;;;;;19.23;9.90;;;;;;;10.82;100.00;101077.99;4965154;57;1144920;-74
2022/11/02 08:24:59;;;;;;;22.43;11.87;;;;;;;10.97;100.00;101081.84;4967426;57;1142916;-74
2022/11/02 08:30:06;;;;;;;20.35;9.08;;;;;;;11.12;100.00;101086.05;4965317;57;1144944;-75
2022/11/02 08:35:11;;;;;;;13.90;7.70;;;;;;;11.23;100.00;101085.66;4953244;58;1142763;-74
2022/11/02 08:40:17;;;;;;;13.63;6.83;;;;;;;11.40;100.00;101055.31;4952955;57;1142861;-74
2022/11/02 08:45:23;;;;;;;15.17;6.37;;;;;;;11.57;100.00;101062.04;4988359;57;1142953;-74
2022/11/02 08:50:29;;;;;;;8.93;6.10;;;;;;;11.72;100.00;101063.56;5007291;57;1142819;-74
2022/11/02 08:55:35;;;;;;;12.30;5.20;;;;;;;11.69;100.00;101058.48;4959378;57;1140667;-75
2022/11/02 09:00:41;;;;;;;8.50;4.43;;;;;;;11.77;100.00;101061.91;4976959;56;1142777;-74
2022/11/02 09:05:48;;;;;;;9.40;4.63;;;;;;;11.84;100.00;101067.13;4964665;57;1140886;-76
2022/11/02 09:10:57;;;;;;;11.33;4.47;;;;;;;11.90;100.00;101050.79;4978645;57;1140924;-74
2022/11/02 09:16:03;;;;;;;16.40;5.53;;;;;;;12.01;100.00;101044.20;5033728;57;1143133;-77
2022/11/02 09:21:09;;;;;;;12.55;3.72;;;;;;;11.98;100.00;101043.94;4962749;57;1142859;-78
2022/11/02 09:26:16;;;;;;;8.13;3.83;;;;;;;12.00;100.00;101043.83;4871534;59;1142879;-78
2022/11/02 09:31:22;;;;;;;9.67;3.50;;;;;;;12.05;100.00;101040.84;5003913;57;1140890;-78
2022/11/02 09:36:27;;;;;;;8.43;3.00;;;;;;;12.17;100.00;101047.86;5024880;56;1140777;-77
2022/11/02 09:41:43;;;;;;;10.60;3.60;;;;;;;12.20;100.00;101055.59;4850769;58;1140784;-77
2022/11/02 09:46:49;;;;;;;9.20;3.10;;;;;;;12.30;100.00;101053.92;4941870;57;1142966;-76
2022/11/02 09:51:58;;;;;;;14.33;3.83;;;;;;;12.32;100.00;101052.00;4966826;57;1141032;-77
2022/11/02 09:57:11;;;;;;;10.78;3.37;;;;;;;12.39;100.00;101041.75;5019117;57;1142955;-77
2022/11/02 10:02:53;;;;;;;6.85;2.47;;;;;;;12.47;100.00;101038.89;5027486;56;1142898;-78
2022/11/02 10:08:07;;;;;;;9.30;2.58;;;;;;;12.53;100.00;101026.94;4998824;56;1148523;-77
2022/11/02 10:13:38;;;;;;;10.88;2.80;;;;;;;12.66;100.00;101019.73;4932671;58;1140741;-77
2022/11/02 10:18:50;;;;;;;5.40;2.13;;;;;;;12.80;100.00;101019.48;4810320;59;1143019;-78
2022/11/02 10:23:55;;;;;;;11.80;3.37;;;;;;;12.91;100.00;101013.32;4764172;60;1140975;-78
2022/11/02 10:29:45;;;;;;;5.90;2.20;;;;;;;13.04;100.00;101020.19;4746527;60;1143422;-78
2022/11/02 10:34:51;;;;;;;9.33;2.57;;;;;;;13.17;100.00;101020.55;4734983;61;1140959;-77
2022/11/02 10:40:07;;;;;;;6.47;2.33;;;;;;;13.25;100.00;101026.95;4745489;61;1141158;-77
2022/11/02 10:45:39;;;;;;;8.10;3.07;;;;;;;13.28;100.00;101037.83;4746402;61;1140911;-78
2022/11/02 10:51:08;;;;;;;6.37;2.33;;;;;;;13.35;100.00;101037.19;4731445;60;1141175;-78
2022/11/02 10:56:31;;;;;;;8.95;2.17;;;;;;;13.52;100.00;101027.00;4843408;58;1140718;-78
2022/11/02 11:01:36;;;;;;;;;;;;;;;13.61;100.00;101032.88;4950044;58;1140738;-78
2022/11/02 11:06:42;;;;;;;;;;;;;;;13.78;100.00;101024.84;4990742;58;978028;-78
2022/11/02 11:12:06;;;;;;;8.10;2.90;;;;;;;13.94;100.00;101003.98;4960748;58;976080;-77
2022/11/02 11:17:23;;;;;;;12.63;2.90;;;;;;;14.13;100.00;101002.80;4887847;58;1138722;-78
2022/11/02 11:22:38;;;;;;;12.33;2.20;;;;;;;14.32;100.00;101009.59;4939351;58;1143094;-78
2022/11/02 11:27:53;;;;;;;16.83;3.27;;;;;;;14.42;100.00;101006.52;4966627;58;1142827;-78
2022/11/02 11:33:01;;;;;;;9.00;2.70;;;;;;;14.53;100.00;100998.08;4891817;58;1143075;-78
2022/11/02 11:38:22;;;;;;;11.75;2.42;;;;;;;14.66;100.00;100997.40;4982119;57;1140933;-78
2022/11/02 11:43:33;;;;;;;12.30;2.30;;;;;;;14.75;100.00;101001.91;4983267;57;1143156;-78
2022/11/02 11:48:45;;;;;;;;;;;;;;;14.89;100.00;100997.55;5046798;57;1143050;-78
2022/11/02 11:54:25;;;;;;;16.00;2.40;;;;;;;15.02;100.00;100997.30;5015837;57;978153;-78
2022/11/02 11:59:46;;;;;;;9.87;2.70;;;;;;;15.16;100.00;100991.58;5005632;57;1140826;-79
2022/11/02 12:05:01;;;;;;;11.10;2.30;;;;;;;15.36;100.00;100981.81;5065886;57;1141235;-78
2022/11/02 12:10:19;;;;;;;7.58;1.80;;;;;;;15.51;99.90;100988.91;5002600;57;1142873;-78
2022/11/02 12:15:51;;;;;;;6.13;2.17;;;;;;;15.45;96.85;100987.14;4990361;57;1138835;-78
2022/11/02 12:21:49;;;;;;;13.80;3.07;;;;;;;15.54;99.06;100984.14;4983321;58;1138636;-78
2022/11/02 12:27:12;;;;;;;12.65;2.65;;;;;;;15.64;98.09;100982.84;4983018;57;1140686;-78
2022/11/02 12:32:50;;;;;;;9.93;1.77;;;;;;;15.82;98.27;100987.33;5010473;57;1140954;-78
2022/11/02 12:38:12;;;;;;;7.33;2.33;;;;;;;15.86;95.38;100975.89;4959908;58;1138929;-78
2022/11/02 12:43:34;;;;;;;7.47;1.53;;;;;;;16.00;94.57;100982.13;4978076;57;1138898;-77
2022/11/02 12:49:05;;;;;;;11.73;2.33;;;;;;;15.99;93.97;100992.44;5026407;57;1138891;-78
2022/11/02 12:54:21;;;;;;;9.33;2.60;;;;;;;16.05;93.32;101001.19;5015880;57;1141053;-77
2022/11/02 12:59:33;;;;;;;8.95;1.92;;;;;;;16.02;92.17;100991.32;4883164;58;1138847;-77
2022/11/02 13:05:04;;;;;;;9.00;2.03;;;;;;;15.69;94.67;101000.11;4968932;57;1138594;-78
2022/11/02 13:10:32;;;;;;;7.00;2.20;;;;;;;15.82;93.50;100994.00;4958452;57;1138764;-78
2022/11/02 13:15:40;;;;;;;14.97;2.70;;;;;;;15.45;95.44;101003.13;4825921;59;1138769;-78
2022/11/02 13:20:55;;;;;;;15.10;2.80;;;;;;;15.22;97.17;101005.70;4919463;57;1140792;-79
2022/11/02 13:26:09;;;;;;;11.63;2.30;;;;;;;14.97;99.04;101004.88;4931410;58;1140722;-78
2022/11/02 13:31:37;;;;;;;23.07;2.93;;;;;;;14.85;99.03;101004.59;4869364;59;1140879;-78
2022/11/02 13:36:45;;;;;;;8.43;2.37;;;;;;;14.71;100.00;101008.47;4903979;57;1140958;-78
2022/11/02 13:42:24;;;;;;;11.13;2.23;;;;;;;14.62;100.00;101010.61;4822833;59;1140770;-78
2022/11/02 13:47:56;;;;;;;8.90;1.77;;;;;;;14.98;100.00;101017.19;4819081;59;1142858;-79
2022/11/02 13:53:07;;;;;;;9.90;1.80;;;;;;;14.86;100.00;101024.44;4855866;59;1141183;-77
2022/11/02 13:58:23;;;;;;;7.22;1.55;;;;;;;15.08;100.00;101026.91;4883602;58;1141043;-78
2022/11/02 14:03:53;;;;;;;7.43;1.70;;;;;;;14.80;98.55;101032.14;4791149;60;1140885;-78
2022/11/02 14:09:03;;;;;;;10.93;2.07;;;;;;;14.55;100.00;101034.73;4888736;58;1138879;-78
2022/11/02 14:14:19;;;;;;;17.27;2.05;;;;;;;14.36;100.00;101041.59;4881936;59;1142933;-78
2022/11/02 14:19:49;;;;;;;6.20;1.77;;;;;;;14.20;100.00;101041.23;4881791;59;1142998;-77
2022/11/02 14:24:59;;;;;;;7.83;2.00;;;;;;;14.13;100.00;101044.03;4881358;58;1140981;-78
2022/11/02 14:30:06;;;;;;;5.30;1.73;;;;;;;14.07;100.00;101050.70;4880893;58;1140764;-78
2022/11/02 14:35:28;;;;;;;8.60;2.30;;;;;;;13.98;100.00;101059.45;4908285;58;1140873;-78
2022/11/02 14:40:59;;;;;;;11.50;2.87;;;;;;;13.94;100.00;101054.52;4952739;57;1140845;-77
2022/11/02 14:46:21;;;;;;;7.37;1.93;;;;;;;13.88;100.00;101057.70;4923576;58;1147552;-78
2022/11/02 14:51:36;;;;;;;7.73;2.50;;;;;;;13.82;100.00;101050.22;4891982;58;1140832;-78
2022/11/02 14:57:01;;;;;;;7.83;2.40;;;;;;;13.78;100.00;101060.74;4891390;58;1140865;-77
2022/11/02 15:02:30;;;;;;;8.63;2.10;;;;;;;13.70;100.00;101060.91;4954595;58;1150287;-77
2022/11/02 15:07:52;;;;;;;7.47;2.07;;;;;;;13.72;100.00;101058.97;4965917;58;1140803;-77
2022/11/02 15:13:22;;;;;;;8.80;2.10;;;;;;;13.67;100.00;101059.81;4971535;58;1140736;-78
2022/11/02 15:18:36;;;;;;;9.30;1.87;;;;;;;13.64;100.00;101077.82;4970613;58;1140865;-78
2022/11/02 15:24:13;;;;;;;9.70;1.90;;;;;;;13.60;100.00;101073.23;5008100;57;1140801;-78
2022/11/02 15:29:45;;;;;;;9.93;2.33;;;;;;;13.54;100.00;101077.73;5002135;58;1140868;-77
2022/11/02 15:34:54;;;;;;;7.77;4.07;;;;;;;13.50;100.00;101090.91;5006824;57;1140795;-77
2022/11/02 15:40:03;;;;;;;11.22;2.92;;;;;;;13.44;100.00;101090.58;5021823;57;1140869;-77
2022/11/02 15:45:38;;;;;;;11.68;2.92;;;;;;;13.35;100.00;101094.80;4891078;59;1142853;-77
2022/11/02 15:50:57;;;;;;;15.85;8.90;;;;;;;13.30;100.00;101103.12;4907018;59;1143050;-78
2022/11/02 15:56:41;;;;;;;9.13;2.60;;;;;;;13.32;100.00;101096.36;4906972;58;1142886;-77
2022/11/02 16:01:48;;;;;;;11.60;3.20;;;;;;;13.33;100.00;101096.72;4899181;59;1140889;-78
2022/11/02 16:06:54;;;;;;;9.47;2.53;;;;;;;13.31;100.00;101106.62;4781197;59;1142948;-78
2022/11/02 16:12:22;;;;;;;12.07;3.30;;;;;;;13.29;100.00;101107.26;4864045;58;1140821;-78
2022/11/02 16:17:27;;;;;;;13.78;3.12;;;;;;;13.24;100.00;101110.75;4863499;58;1143163;-78
2022/11/02 16:22:33;;;;;;;10.47;4.13;;;;;;;13.22;100.00;101115.34;4812295;59;1142895;-78
2022/11/02 16:27:40;;;;;;;22.13;10.37;;;;;;;13.23;100.00;101119.69;4887507;59;1142743;-78
2022/11/02 16:32:48;;;;;;;63.43;22.27;;;;;;;13.21;100.00;101119.80;4802288;59;1145138;-77
2022/11/02 16:37:54;;;;;;;33.27;14.23;;;;;;;13.21;100.00;101118.95;5000582;57;1145073;-78
2022/11/02 16:43:00;;;;;;;46.05;24.92;;;;;;;13.23;100.00;101126.33;4992374;58;1156532;-80
2022/11/02 16:48:25;;;;;;;20.67;6.60;;;;;;;13.17;100.00;101124.98;4968127;58;1262500;-78
2022/11/02 16:53:34;;;;;;;27.90;13.23;;;;;;;13.10;100.00;101121.11;4970420;58;1142985;-78
2022/11/02 16:58:48;;;;;;;35.23;13.47;;;;;;;13.03;100.00;101131.83;4986283;57;1145137;-79
2022/11/02 17:03:54;;;;;;;248.80;139.23;;;;;;;12.96;100.00;101139.93;5004131;57;1144926;-78
2022/11/02 17:09:00;;;;;;;210.50;122.57;;;;;;;12.93;100.00;101146.80;5005252;57;1149293;-78
2022/11/02 17:14:06;;;;;;;62.43;31.57;;;;;;;12.88;100.00;101150.28;5009296;57;1149108;-80
2022/11/02 17:19:35;;;;;;;28.32;9.43;;;;;;;12.82;100.00;101155.60;5006965;57;1148047;-78
2022/11/02 17:24:41;;;;;;;19.40;6.53;;;;;;;12.78;100.00;101162.10;4980233;57;1142892;-78
2022/11/02 17:29:47;;;;;;;21.73;9.30;;;;;;;12.74;100.00;101163.77;5015428;57;1143290;-78
2022/11/02 17:34:55;;;;;;;24.50;6.90;;;;;;;12.68;100.00;101165.06;4983612;57;1142984;-78
2022/11/02 17:40:04;;;;;;;20.97;6.23;;;;;;;12.64;100.00;101164.48;4974753;57;1142899;-79
2022/11/02 17:45:39;;;;;;;21.60;7.20;;;;;;;12.55;100.00;101170.47;5016747;56;1143859;-78
2022/11/02 17:50:46;;;;;;;55.43;30.73;;;;;;;12.47;100.00;101174.19;5007223;57;1143027;-79
2022/11/02 17:55:53;;;;;;;32.13;8.30;;;;;;;12.39;100.00;101170.41;4976587;57;1144995;-79
2022/11/02 18:01:01;;;;;;;19.80;8.23;;;;;;;12.30;100.00;101171.47;4986738;57;1143110;-81
2022/11/02 18:06:09;;;;;;;14.87;5.80;;;;;;;12.21;100.00;101164.69;4969779;57;1150432;-79
2022/11/02 18:11:14;;;;;;;32.88;10.43;;;;;;;12.13;100.00;101166.56;4991633;57;1143128;-79
2022/11/02 18:16:22;;;;;;;53.63;23.07;;;;;;;12.05;100.00;101157.02;4981087;57;1144986;-80
2022/11/02 18:21:36;;;;;;;26.83;6.53;;;;;;;11.98;100.00;101148.66;5015252;57;1145007;-78
2022/11/02 18:26:41;;;;;;;17.93;4.77;;;;;;;11.90;100.00;101143.09;5020330;57;1143062;-78
2022/11/02 18:31:47;;;;;;;16.43;4.50;;;;;;;11.83;100.00;101150.25;5022477;57;1143102;-79
2022/11/02 18:36:53;;;;;;;9.87;4.03;;;;;;;11.77;100.00;101150.69;5026147;57;1142953;-78
2022/11/02 18:41:59;;;;;;;7.23;3.20;;;;;;;11.71;100.00;101151.11;5037851;57;1140778;-79
2022/11/02 18:47:04;;;;;;;12.80;3.43;;;;;;;11.65;100.00;101156.37;5000530;56;1140836;-78
2022/11/02 18:52:10;;;;;;;10.13;3.37;;;;;;;11.58;100.00;101160.43;4972704;57;1143069;-79
2022/11/02 18:57:15;;;;;;;8.03;3.22;;;;;;;11.52;100.00;101168.33;5045924;57;1142818;-78
2022/11/02 19:02:23;;;;;;;15.72;3.27;;;;;;;11.50;100.00;101174.69;4991120;57;1140816;-79
2022/11/02 19:12:52;;;;;;;9.03;2.47;;;;;;;11.39;100.00;101195.31;4994227;57;1142792;-79
2022/11/02 19:17:57;;;;;;;11.87;3.13;;;;;;;11.27;100.00;101203.64;5049394;57;1140673;-79
2022/11/02 19:23:03;;;;;;;6.93;3.23;;;;;;;11.22;100.00;101202.26;4998991;57;1142888;-78
2022/11/02 19:28:09;;;;;;;11.17;3.10;;;;;;;11.25;100.00;101206.87;5038271;57;1142697;-77
2022/11/02 19:33:14;;;;;;;11.85;3.22;;;;;;;11.27;100.00;101218.69;5030956;57;1142931;-77
2022/11/02 19:38:20;;;;;;;9.60;3.02;;;;;;;11.24;100.00;101222.39;5013651;57;1142811;-77
2022/11/02 19:43:26;;;;;;;10.14;3.46;;;;;;;11.18;100.00;101222.80;5031325;57;1141039;-78
2022/11/02 19:48:39;;;;;;;8.73;2.30;;;;;;;11.11;100.00;101228.64;5003253;57;1142823;-79
2022/11/02 19:53:43;;;;;;;7.83;2.67;;;;;;;11.09;100.00;101230.53;4962200;57;1140901;-78
2022/11/02 19:58:53;;;;;;;7.50;2.80;;;;;;;11.04;100.00;101238.78;4956021;57;1140866;-79
2022/11/02 20:04:00;;;;;;;10.70;3.17;;;;;;;11.01;100.00;101250.05;4986058;56;1140949;-78
2022/11/02 20:09:16;;;;;;;8.43;2.80;;;;;;;11.01;100.00;101260.16;4960513;57;1143090;-78
2022/11/02 20:14:22;;;;;;;10.70;4.27;;;;;;;10.94;100.00;101261.55;4970603;57;1140835;-77
2022/11/02 20:19:27;;;;;;;10.70;3.87;;;;;;;10.87;100.00;101260.25;4974540;57;1143032;-78
2022/11/02 20:24:34;;;;;;;8.00;3.73;;;;;;;10.83;100.00;101266.72;4979653;57;1142847;-78
2022/11/02 20:29:40;;;;;;;10.18;4.08;;;;;;;10.78;100.00;101272.78;4991610;57;1140936;-78
2022/11/02 20:34:46;;;;;;;18.93;4.67;;;;;;;10.75;100.00;101277.80;4999766;57;1142987;-78
2022/11/02 20:39:51;;;;;;;15.23;5.40;;;;;;;10.71;100.00;101284.70;4945259;58;1142889;-78
2022/11/02 20:44:57;;;;;;;37.73;11.00;;;;;;;10.68;100.00;101287.10;4945317;58;1143207;-78
2022/11/02 20:50:04;;;;;;;42.50;16.70;;;;;;;10.75;100.00;101296.78;4953463;57;1144996;-78
2022/11/02 20:55:10;;;;;;;43.50;16.87;;;;;;;10.76;100.00;101291.88;5002053;57;1228300;-78
2022/11/02 21:00:18;;;;;;;43.00;15.53;;;;;;;10.66;100.00;101292.96;4891307;57;1145106;-78
2022/11/02 21:05:24;;;;;;;47.67;17.65;;;;;;;10.55;100.00;101302.90;4997073;57;1145130;-78
2022/11/02 21:10:29;;;;;;;39.27;18.30;;;;;;;10.51;100.00;101312.48;5006916;57;1145020;-77
2022/11/02 21:15:36;;;;;;;43.97;18.93;;;;;;;10.43;100.00;101314.28;5008135;57;1145081;-78
2022/11/02 21:20:42;;;;;;;42.07;17.27;;;;;;;10.44;100.00;101317.77;4880888;58;1145039;-78
2022/11/02 21:25:48;;;;;;;41.93;16.97;;;;;;;10.43;100.00;101317.39;4995063;57;1145153;-78
2022/11/02 21:30:55;;;;;;;50.70;26.13;;;;;;;10.39;100.00;101323.34;5008906;57;1145055;-78
2022/11/02 21:36:02;;;;;;;38.30;20.10;;;;;;;10.34;100.00;101324.61;5032193;57;1144994;-78
2022/11/02 21:41:09;;;;;;;45.37;19.93;;;;;;;10.23;100.00;101326.11;5019348;57;1145060;-78
2022/11/02 21:46:17;;;;;;;44.70;19.90;;;;;;;10.19;100.00;101331.72;4983887;57;1144970;-78
2022/11/02 21:51:23;;;;;;;39.20;17.65;;;;;;;10.17;100.00;101323.84;4989024;57;1145122;-78
2022/11/02 21:56:30;;;;;;;30.65;15.15;;;;;;;10.14;100.00;101317.42;5012681;57;1144914;-78
2022/11/02 22:01:50;;;;;;;33.60;14.67;;;;;;;10.10;100.00;101325.63;5023048;57;1145046;-78
2022/11/02 22:06:53;;;;;;;30.30;14.53;;;;;;;10.02;100.00;101329.24;4976387;57;1144888;-77
2022/11/02 22:17:21;;;;;;;;;;;;;;;9.76;100.00;101318.98;5002550;57;1142942;-78
2022/11/02 22:22:26;;;;;;;43.90;15.17;;;;;;;9.70;100.00;101324.63;4976272;58;976224;-78
2022/11/02 22:27:32;;;;;;;52.20;20.70;;;;;;;9.62;100.00;101321.61;4954278;58;1141109;-77
2022/11/02 22:32:38;;;;;;;42.17;19.10;;;;;;;9.57;100.00;101324.52;4954001;58;1142833;-77
2022/11/02 22:43:06;;;;;;;38.93;20.27;;;;;;;9.44;100.00;101334.13;5082785;57;1142991;-78
2022/11/02 22:48:13;;;;;;;35.36;17.48;;;;;;;9.33;100.00;101337.38;5057071;57;1143083;-78
2022/11/02 22:53:19;;;;;;;41.77;18.10;;;;;;;9.24;100.00;101333.98;5077904;56;1142841;-78
2022/11/02 22:58:25;;;;;;;39.00;16.15;;;;;;;9.22;100.00;101338.50;5037873;57;1142888;-78
2022/11/02 23:03:34;;;;;;;39.50;16.63;;;;;;;9.22;100.00;101342.45;5066160;57;1142736;-77
2022/11/02 23:08:44;;;;;;;43.47;17.97;;;;;;;9.24;100.00;101339.73;5066033;57;1142809;-77
2022/11/02 23:14:09;;;;;;;37.93;14.50;;;;;;;9.20;100.00;101342.16;5043785;57;1142944;-78
2022/11/02 23:19:34;;;;;;;30.77;13.30;;;;;;;9.11;100.00;101348.38;4971468;57;1143067;-78
2022/11/02 23:40:43;;;;;;;17.75;9.00;;;;;;;8.73;100.00;101369.02;5079229;57;1141077;-78
2022/11/02 23:45:49;;;;;;;17.73;8.93;;;;;;;8.67;100.00;101365.89;5079339;57;1140718;-78
